Time;durP1;ratioP1;P1;durP2;ratioP2;P2;SDS_P1;SDS_P2;PMS_P1;PMS_P2;Temp;Humidity;BMP_temperature;BMP_pressure;BME280_temperature;BME280_humidity;BME280_pressure;Samples;Min_cycle;Max_cycle;Signal;HPM_P1;HPM_P2
2022/06/11 00:01:13;;;;;;;3.57;2.80;;;;;;;;;;4995177;28;20278;-73
2022/06/11 00:03:39;;;;;;;5.07;3.00;;;;;;;;;;4980431;28;20207;-73
2022/06/11 00:06:06;;;;;;;5.23;3.00;;;;;;;;;;4996171;28;20183;-73
2022/06/11 00:08:33;;;;;;;4.83;3.20;;;;;;;;;;4992625;28;20176;-73
2022/06/11 00:10:59;;;;;;;4.70;3.17;;;;;;;;;;4996760;28;20226;-73
2022/06/11 00:13:25;;;;;;;7.37;2.87;;;;;;;;;;4993284;28;20223;-73
2022/06/11 00:15:53;;;;;;;3.50;2.90;;;;;;;;;;4994468;28;20237;-74
2022/06/11 00:18:20;;;;;;;4.57;2.90;;;;;;;;;;4993516;28;20187;-74
2022/06/11 00:20:46;;;;;;;5.30;2.93;;;;;;;;;;4995936;28;20200;-75
2022/06/11 00:23:13;;;;;;;3.90;3.00;;;;;;;;;;4994471;28;20235;-73
2022/06/11 00:25:39;;;;;;;5.10;2.97;;;;;;;;;;4994187;28;20180;-73
2022/06/11 00:28:06;;;;;;;4.50;3.00;;;;;;;;;;4993281;28;20184;-74
2022/06/11 00:30:33;;;;;;;3.50;2.80;;;;;;;;;;4990911;28;20208;-73
2022/06/11 00:32:59;;;;;;;4.07;3.20;;;;;;;;;;4999691;28;20211;-74
2022/06/11 00:35:27;;;;;;;3.10;2.70;;;;;;;;;;4996431;28;20665;-73
2022/06/11 00:37:54;;;;;;;6.93;3.40;;;;;;;;;;5000019;28;20176;-73
2022/06/11 00:40:22;;;;;;;5.13;3.20;;;;;;;;;;4996835;28;20287;-74
2022/06/11 00:42:49;;;;;;;3.50;3.20;;;;;;;;;;5010953;28;20566;-73
2022/06/11 00:45:33;;;;;;;4.50;3.10;;;;;;;;;;4999024;28;20275;-74
2022/06/11 00:48:05;;;;;;;3.33;3.00;;;;;;;;;;5003605;28;20682;-74
2022/06/11 00:50:38;;;;;;;4.53;3.20;;;;;;;;;;4997633;28;20211;-73
2022/06/11 00:53:10;;;;;;;5.20;3.20;;;;;;;;;;5004258;28;20186;-73
2022/06/11 00:55:37;;;;;;;3.97;2.90;;;;;;;;;;4996769;28;20230;-74
2022/06/11 00:58:11;;;;;;;3.97;3.03;;;;;;;;;;4997538;28;20614;-73
2022/06/11 01:00:43;;;;;;;4.80;3.07;;;;;;;;;;4994062;28;20230;-73
2022/06/11 01:03:10;;;;;;;3.67;3.03;;;;;;;;;;4998790;28;20210;-73
2022/06/11 01:05:39;;;;;;;5.40;2.90;;;;;;;;;;4992806;28;20179;-73
2022/06/11 01:08:05;;;;;;;4.97;2.90;;;;;;;;;;4991743;28;20270;-73
2022/06/11 01:10:34;;;;;;;3.27;2.80;;;;;;;;;;4995162;28;20196;-73
2022/06/11 01:13:19;;;;;;;3.77;3.07;;;;;;;;;;5007586;28;20175;-73
2022/06/11 01:15:49;;;;;;;3.87;2.80;;;;;;;;;;4998004;28;20179;-73
2022/06/11 01:18:32;;;;;;;5.77;3.00;;;;;;;;;;5000361;28;20194;-73
2022/06/11 01:21:15;;;;;;;6.20;3.50;;;;;;;;;;4995174;28;20211;-74
2022/06/11 01:23:44;;;;;;;4.70;3.10;;;;;;;;;;4997446;28;20215;-73
2022/06/11 01:26:17;;;;;;;3.83;3.23;;;;;;;;;;4993011;28;20648;-75
2022/06/11 01:28:49;;;;;;;5.10;3.60;;;;;;;;;;4997725;28;20184;-73
2022/06/11 01:31:35;;;;;;;5.03;3.77;;;;;;;;;;4989169;28;20206;-73
2022/06/11 01:34:20;;;;;;;7.00;3.73;;;;;;;;;;4995900;28;20221;-73
2022/06/11 01:36:48;;;;;;;5.10;3.67;;;;;;;;;;5004059;28;20185;-72
2022/06/11 01:39:23;;;;;;;4.53;3.23;;;;;;;;;;5009788;28;20187;-73
2022/06/11 01:41:49;;;;;;;5.80;3.87;;;;;;;;;;5000422;28;20711;-73
2022/06/11 01:44:20;;;;;;;5.03;3.73;;;;;;;;;;4990054;28;20219;-73
2022/06/11 01:46:48;;;;;;;5.50;3.97;;;;;;;;;;5000070;28;20261;-73
2022/06/11 01:49:20;;;;;;;4.53;3.73;;;;;;;;;;4992516;28;20184;-74
2022/06/11 01:52:05;;;;;;;4.40;3.90;;;;;;;;;;4998759;28;20307;-74
2022/06/11 01:54:31;;;;;;;6.53;3.93;;;;;;;;;;4991974;28;20813;-73
2022/06/11 01:56:57;;;;;;;5.17;3.67;;;;;;;;;;4997400;28;20290;-73
2022/06/11 01:59:42;;;;;;;4.30;3.40;;;;;;;;;;4998494;28;20191;-74
2022/06/11 02:02:18;;;;;;;5.73;3.50;;;;;;;;;;5009758;28;20233;-73
2022/06/11 02:04:53;;;;;;;4.67;3.80;;;;;;;;;;5000035;28;20272;-75
2022/06/11 02:07:33;;;;;;;4.50;3.57;;;;;;;;;;4999589;28;20187;-73
2022/06/11 02:09:59;;;;;;;4.10;3.40;;;;;;;;;;5005704;28;20266;-73
2022/06/11 02:12:37;;;;;;;3.83;3.23;;;;;;;;;;5001298;28;20188;-73
2022/06/11 02:15:07;;;;;;;4.03;3.63;;;;;;;;;;5009733;28;20198;-74
2022/06/11 02:17:38;;;;;;;4.83;4.17;;;;;;;;;;5001483;28;20187;-73
2022/06/11 02:20:17;;;;;;;6.13;3.73;;;;;;;;;;4992812;28;20207;-73
2022/06/11 02:23:09;;;;;;;4.00;3.60;;;;;;;;;;4998148;28;20184;-73
2022/06/11 02:25:41;;;;;;;4.70;3.60;;;;;;;;;;4999006;28;20196;-72
2022/06/11 02:28:11;;;;;;;6.10;4.07;;;;;;;;;;4995797;28;20188;-72
2022/06/11 02:30:38;;;;;;;4.43;4.03;;;;;;;;;;5000562;28;20258;-72
2022/06/11 02:33:04;;;;;;;4.60;3.50;;;;;;;;;;5003411;28;20202;-72
2022/06/11 02:35:36;;;;;;;4.57;4.10;;;;;;;;;;4995526;28;20172;-73
2022/06/11 02:38:04;;;;;;;5.93;4.20;;;;;;;;;;5011334;28;20210;-72
2022/06/11 02:40:33;;;;;;;4.90;4.27;;;;;;;;;;5010529;28;20210;-72
2022/06/11 02:42:59;;;;;;;6.30;3.77;;;;;;;;;;5001751;28;20560;-73
2022/06/11 02:45:25;;;;;;;3.73;3.40;;;;;;;;;;5002005;28;21403;-73
2022/06/11 02:47:52;;;;;;;5.57;3.20;;;;;;;;;;4996166;28;20210;-72
2022/06/11 02:50:21;;;;;;;4.40;3.40;;;;;;;;;;4988945;28;20207;-72
2022/06/11 02:52:47;;;;;;;4.30;3.60;;;;;;;;;;5007512;28;20219;-72
2022/06/11 02:55:13;;;;;;;5.60;3.23;;;;;;;;;;4999710;28;20269;-73
2022/06/11 02:57:40;;;;;;;3.90;3.50;;;;;;;;;;5009104;28;20750;-73
2022/06/11 03:00:10;;;;;;;3.50;3.03;;;;;;;;;;4995615;28;20207;-72
2022/06/11 03:02:36;;;;;;;3.73;2.90;;;;;;;;;;4999983;28;20184;-72
2022/06/11 03:05:03;;;;;;;3.90;3.40;;;;;;;;;;4996063;28;20559;-72
2022/06/11 03:07:30;;;;;;;5.03;3.53;;;;;;;;;;4995732;28;20813;-72
2022/06/11 03:09:56;;;;;;;4.17;3.23;;;;;;;;;;4990783;28;20184;-72
2022/06/11 03:12:23;;;;;;;3.97;3.40;;;;;;;;;;4992817;28;20211;-72
2022/06/11 03:14:49;;;;;;;4.33;3.67;;;;;;;;;;4993678;28;20270;-71
2022/06/11 03:17:17;;;;;;;4.27;3.37;;;;;;;;;;4998317;28;20274;-72
2022/06/11 03:19:43;;;;;;;4.23;3.07;;;;;;;;;;4992323;28;20202;-72
2022/06/11 03:22:09;;;;;;;6.30;3.10;;;;;;;;;;4994319;28;20202;-71
2022/06/11 03:24:36;;;;;;;4.17;3.13;;;;;;;;;;4997514;28;20242;-72
2022/06/11 03:27:02;;;;;;;4.27;3.10;;;;;;;;;;4990546;28;20278;-72
2022/06/11 03:29:28;;;;;;;5.57;3.50;;;;;;;;;;4997174;28;20172;-73
2022/06/11 03:31:54;;;;;;;4.67;3.23;;;;;;;;;;4991084;28;20210;-72
2022/06/11 03:34:21;;;;;;;5.73;3.77;;;;;;;;;;5003508;28;20192;-73
2022/06/11 03:36:48;;;;;;;5.80;3.50;;;;;;;;;;5007283;28;20241;-73
2022/06/11 03:39:16;;;;;;;6.90;3.00;;;;;;;;;;4995084;28;20649;-73
2022/06/11 03:41:43;;;;;;;4.57;3.13;;;;;;;;;;4994809;28;20736;-73
2022/06/11 03:44:09;;;;;;;4.67;2.93;;;;;;;;;;4994546;28;20208;-74
2022/06/11 03:46:36;;;;;;;6.27;3.00;;;;;;;;;;4997652;28;20175;-75
2022/06/11 03:49:02;;;;;;;6.10;3.37;;;;;;;;;;5004889;28;20533;-74
2022/06/11 03:51:29;;;;;;;5.77;3.17;;;;;;;;;;5003006;28;20214;-76
2022/06/11 03:53:55;;;;;;;5.13;2.80;;;;;;;;;;5003814;28;20654;-75
2022/06/11 03:56:21;;;;;;;4.93;3.17;;;;;;;;;;4998527;28;20378;-75
2022/06/11 03:58:49;;;;;;;4.93;3.30;;;;;;;;;;5012230;28;20274;-75
2022/06/11 04:01:16;;;;;;;4.13;3.10;;;;;;;;;;5003379;28;20234;-75
2022/06/11 04:03:46;;;;;;;5.90;3.43;;;;;;;;;;5004915;28;20538;-74
2022/06/11 04:06:15;;;;;;;5.03;3.27;;;;;;;;;;4995525;28;20187;-74
2022/06/11 04:08:41;;;;;;;3.97;3.30;;;;;;;;;;4996883;28;20194;-76
2022/06/11 04:11:08;;;;;;;5.17;3.40;;;;;;;;;;5000865;28;20661;-75
2022/06/11 04:13:35;;;;;;;5.53;3.40;;;;;;;;;;4999262;28;20184;-75
2022/06/11 04:16:02;;;;;;;3.83;3.23;;;;;;;;;;5014072;28;20195;-75
2022/06/11 04:18:36;;;;;;;4.37;2.80;;;;;;;;;;4997586;28;20570;-76
2022/06/11 04:21:04;;;;;;;4.97;3.20;;;;;;;;;;5002195;28;20208;-75
2022/06/11 04:23:30;;;;;;;6.43;3.27;;;;;;;;;;5000643;28;20281;-75
2022/06/11 04:26:01;;;;;;;4.33;3.30;;;;;;;;;;4998794;28;20184;-75
2022/06/11 04:28:28;;;;;;;5.53;3.50;;;;;;;;;;5005275;28;20661;-75
2022/06/11 04:30:55;;;;;;;4.90;3.30;;;;;;;;;;4997752;28;20202;-75
2022/06/11 04:33:21;;;;;;;4.47;3.07;;;;;;;;;;4999623;28;20195;-76
2022/06/11 04:35:48;;;;;;;3.83;3.30;;;;;;;;;;4995964;28;20730;-75
2022/06/11 04:38:14;;;;;;;4.63;3.40;;;;;;;;;;5000724;28;20683;-75
2022/06/11 04:40:41;;;;;;;4.37;3.07;;;;;;;;;;5000900;28;20727;-75
2022/06/11 04:43:07;;;;;;;5.07;3.03;;;;;;;;;;4999902;28;20191;-75
2022/06/11 04:45:33;;;;;;;5.03;3.00;;;;;;;;;;4999526;28;20573;-76
2022/06/11 04:48:00;;;;;;;5.37;3.27;;;;;;;;;;5000063;28;20253;-75
2022/06/11 04:50:26;;;;;;;6.67;3.27;;;;;;;;;;5001715;28;20203;-76
2022/06/11 04:52:52;;;;;;;4.60;3.30;;;;;;;;;;4998334;28;20238;-76
2022/06/11 04:55:19;;;;;;;8.40;3.73;;;;;;;;;;5002239;28;20183;-76
2022/06/11 04:57:45;;;;;;;7.23;3.73;;;;;;;;;;4999388;28;20660;-76
2022/06/11 05:00:16;;;;;;;6.27;4.13;;;;;;;;;;5001129;28;20716;-75
2022/06/11 05:02:42;;;;;;;6.83;3.83;;;;;;;;;;4996165;28;20179;-76
2022/06/11 05:05:09;;;;;;;4.47;3.47;;;;;;;;;;4999703;28;20271;-76
2022/06/11 05:07:35;;;;;;;4.90;3.30;;;;;;;;;;4998919;28;20212;-75
2022/06/11 05:10:02;;;;;;;3.97;3.10;;;;;;;;;;4994484;28;20201;-78
2022/06/11 05:12:28;;;;;;;4.80;3.40;;;;;;;;;;4994129;28;20172;-79
2022/06/11 05:14:54;;;;;;;4.90;3.80;;;;;;;;;;4998701;28;20218;-79
2022/06/11 05:17:20;;;;;;;4.80;3.53;;;;;;;;;;5004587;28;20195;-79
2022/06/11 05:19:46;;;;;;;7.17;3.80;;;;;;;;;;5019587;28;20541;-79
2022/06/11 05:22:13;;;;;;;4.33;3.60;;;;;;;;;;5018675;28;20258;-79
2022/06/11 05:24:39;;;;;;;6.17;3.80;;;;;;;;;;5008065;28;20260;-78
2022/06/11 05:27:12;;;;;;;3.20;2.90;;;;;;;;;;5010443;28;20267;-78
2022/06/11 05:29:48;;;;;;;5.67;3.93;;;;;;;;;;5012175;28;20321;-78
2022/06/11 05:32:16;;;;;;;4.70;3.33;;;;;;;;;;4999061;28;20217;-79
2022/06/11 05:34:44;;;;;;;4.97;3.37;;;;;;;;;;5022489;28;20255;-79
2022/06/11 05:37:10;;;;;;;4.70;3.50;;;;;;;;;;5001511;28;20180;-79
2022/06/11 05:39:37;;;;;;;4.67;3.80;;;;;;;;;;5000300;28;20190;-79
2022/06/11 05:42:03;;;;;;;4.53;3.60;;;;;;;;;;5004685;28;20214;-79
2022/06/11 05:44:29;;;;;;;5.63;4.17;;;;;;;;;;5002002;28;20253;-79
2022/06/11 05:46:55;;;;;;;4.77;4.27;;;;;;;;;;4998039;28;20254;-78
2022/06/11 05:49:23;;;;;;;5.63;3.50;;;;;;;;;;5001928;28;20179;-79
2022/06/11 05:51:53;;;;;;;4.47;3.90;;;;;;;;;;5000079;28;20287;-79
2022/06/11 05:54:21;;;;;;;6.13;4.13;;;;;;;;;;5009082;28;20275;-79
2022/06/11 05:56:47;;;;;;;5.63;3.60;;;;;;;;;;5001837;28;20235;-79
2022/06/11 05:59:16;;;;;;;5.30;3.90;;;;;;;;;;5003161;28;20191;-78
2022/06/11 06:01:43;;;;;;;4.67;3.73;;;;;;;;;;5011319;28;20203;-78
2022/06/11 06:04:09;;;;;;;4.53;3.70;;;;;;;;;;5021092;28;20291;-79
2022/06/11 06:06:36;;;;;;;5.17;3.60;;;;;;;;;;5002603;28;20278;-78
2022/06/11 06:09:02;;;;;;;4.50;3.60;;;;;;;;;;5012118;28;20193;-79
2022/06/11 06:11:29;;;;;;;6.57;3.73;;;;;;;;;;5000842;28;20210;-78
2022/06/11 06:13:56;;;;;;;5.27;3.50;;;;;;;;;;5011569;28;20687;-77
2022/06/11 06:16:24;;;;;;;4.90;3.40;;;;;;;;;;5000741;28;20607;-79
2022/06/11 06:18:51;;;;;;;7.80;3.90;;;;;;;;;;4995108;28;20187;-76
2022/06/11 06:21:18;;;;;;;7.43;4.23;;;;;;;;;;5004014;28;20207;-77
2022/06/11 06:23:44;;;;;;;4.73;4.27;;;;;;;;;;4996721;28;20211;-77
2022/06/11 06:26:13;;;;;;;6.87;5.17;;;;;;;;;;4991759;28;20213;-76
2022/06/11 06:28:39;;;;;;;6.67;4.00;;;;;;;;;;4995076;28;20171;-76
2022/06/11 06:31:06;;;;;;;5.73;3.90;;;;;;;;;;5011978;28;20203;-77
2022/06/11 06:33:33;;;;;;;5.10;3.40;;;;;;;;;;5003880;28;20178;-77
2022/06/11 06:36:00;;;;;;;5.07;3.73;;;;;;;;;;4997759;28;20209;-76
2022/06/11 06:38:27;;;;;;;5.67;4.20;;;;;;;;;;4999712;28;20295;-75
2022/06/11 06:40:53;;;;;;;7.83;4.70;;;;;;;;;;5023265;28;20665;-76
2022/06/11 06:43:20;;;;;;;5.90;4.50;;;;;;;;;;4995077;28;20357;-76
2022/06/11 06:45:46;;;;;;;6.17;4.50;;;;;;;;;;5005001;28;20176;-76
2022/06/11 06:48:12;;;;;;;6.03;3.87;;;;;;;;;;4999857;28;20183;-75
2022/06/11 06:50:38;;;;;;;7.23;4.30;;;;;;;;;;5005111;28;20202;-76
2022/06/11 06:53:05;;;;;;;6.93;4.80;;;;;;;;;;4995084;28;20180;-76
2022/06/11 06:55:31;;;;;;;6.57;4.20;;;;;;;;;;4995528;28;20195;-76
2022/06/11 06:57:58;;;;;;;6.87;4.47;;;;;;;;;;4997261;28;20254;-78
2022/06/11 07:00:24;;;;;;;5.03;4.10;;;;;;;;;;5008572;28;20206;-76
2022/06/11 07:02:53;;;;;;;5.60;3.83;;;;;;;;;;5004430;28;20561;-76
2022/06/11 07:05:20;;;;;;;7.17;4.53;;;;;;;;;;4998401;28;20624;-76
2022/06/11 07:07:47;;;;;;;6.30;4.07;;;;;;;;;;4994029;28;20275;-76
2022/06/11 07:10:13;;;;;;;4.67;3.40;;;;;;;;;;5001157;28;20235;-76
2022/06/11 07:12:39;;;;;;;4.53;3.10;;;;;;;;;;4995886;28;20184;-76
2022/06/11 07:15:06;;;;;;;7.10;4.00;;;;;;;;;;5000660;28;20176;-81
2022/06/11 07:17:34;;;;;;;5.83;3.77;;;;;;;;;;5004818;28;20275;-80
2022/06/11 07:20:06;;;;;;;4.30;3.73;;;;;;;;;;4996351;28;20730;-76
2022/06/11 07:22:37;;;;;;;5.30;3.73;;;;;;;;;;4995222;28;20188;-76
2022/06/11 07:25:05;;;;;;;5.03;3.70;;;;;;;;;;5006102;28;20740;-76
2022/06/11 07:27:34;;;;;;;5.57;3.60;;;;;;;;;;5007695;28;20175;-76
2022/06/11 07:30:03;;;;;;;7.70;3.60;;;;;;;;;;5006488;28;20198;-76
2022/06/11 07:32:35;;;;;;;6.73;3.93;;;;;;;;;;5006097;28;20558;-76
2022/06/11 07:35:14;;;;;;;6.80;3.70;;;;;;;;;;5001879;28;20179;-76
2022/06/11 07:37:41;;;;;;;7.10;3.80;;;;;;;;;;5012239;28;20261;-76
2022/06/11 07:40:07;;;;;;;5.47;3.60;;;;;;;;;;5002892;28;20864;-76
2022/06/11 07:42:33;;;;;;;7.60;3.63;;;;;;;;;;5005327;28;20593;-76
2022/06/11 07:45:00;;;;;;;6.23;3.73;;;;;;;;;;4995655;28;20685;-76
2022/06/11 07:50:12;;;;;;;5.60;3.50;;;;;;;;;;4999326;28;20222;-76
2022/06/11 07:52:39;;;;;;;5.00;3.13;;;;;;;;;;5001478;28;20180;-77
2022/06/11 07:55:05;;;;;;;5.30;3.47;;;;;;;;;;5001507;28;20783;-76
2022/06/11 07:57:32;;;;;;;4.63;3.17;;;;;;;;;;4986243;28;20576;-77
2022/06/11 07:59:58;;;;;;;4.50;2.87;;;;;;;;;;4993026;28;20188;-77
2022/06/11 08:02:25;;;;;;;3.20;2.80;;;;;;;;;;4994250;28;20203;-77
2022/06/11 08:04:51;;;;;;;4.63;2.80;;;;;;;;;;4990175;28;20208;-76
2022/06/11 08:07:18;;;;;;;6.13;3.40;;;;;;;;;;4989911;28;20665;-76
2022/06/11 08:09:44;;;;;;;13.93;3.30;;;;;;;;;;4999116;28;20179;-76
2022/06/11 08:12:10;;;;;;;5.50;3.10;;;;;;;;;;5003673;28;20237;-76
2022/06/11 08:14:37;;;;;;;5.23;3.13;;;;;;;;;;4994128;28;20235;-76
2022/06/11 08:17:03;;;;;;;3.80;3.03;;;;;;;;;;4998365;28;20195;-76
2022/06/11 08:19:29;;;;;;;5.50;2.77;;;;;;;;;;4995262;28;20258;-77
2022/06/11 08:21:56;;;;;;;4.23;2.97;;;;;;;;;;4998357;28;20200;-77
2022/06/11 08:24:23;;;;;;;4.77;3.00;;;;;;;;;;4994438;28;20246;-77
2022/06/11 08:26:49;;;;;;;5.03;2.87;;;;;;;;;;4993763;28;20278;-77
2022/06/11 08:29:15;;;;;;;5.80;3.23;;;;;;;;;;5002460;28;20190;-77
2022/06/11 08:31:42;;;;;;;5.10;2.70;;;;;;;;;;4994083;28;20222;-77
2022/06/11 08:34:08;;;;;;;5.40;2.80;;;;;;;;;;4996118;28;20261;-77
2022/06/11 08:36:34;;;;;;;5.67;2.73;;;;;;;;;;4994937;28;20624;-77
2022/06/11 08:39:00;;;;;;;3.73;2.80;;;;;;;;;;5002135;28;20191;-77
2022/06/11 08:41:30;;;;;;;4.60;2.57;;;;;;;;;;4990771;28;20620;-77
2022/06/11 08:43:58;;;;;;;6.07;2.50;;;;;;;;;;5001611;28;20214;-77
2022/06/11 08:46:26;;;;;;;5.03;2.50;;;;;;;;;;4995959;28;20183;-77
2022/06/11 08:49:02;;;;;;;5.03;2.90;;;;;;;;;;4995873;28;20621;-77
2022/06/11 08:51:34;;;;;;;8.40;2.43;;;;;;;;;;4990436;28;20701;-77
2022/06/11 08:54:03;;;;;;;4.63;2.30;;;;;;;;;;4988952;28;20677;-77
2022/06/11 08:56:39;;;;;;;4.63;2.57;;;;;;;;;;4997061;28;20191;-77
2022/06/11 08:59:12;;;;;;;4.20;2.60;;;;;;;;;;4992898;28;20265;-77
2022/06/11 09:01:49;;;;;;;5.73;2.63;;;;;;;;;;4995861;28;20211;-77
2022/06/11 09:04:34;;;;;;;4.63;2.30;;;;;;;;;;5013270;28;20206;-77
2022/06/11 09:07:00;;;;;;;4.00;2.20;;;;;;;;;;4999463;28;20270;-77
2022/06/11 09:09:32;;;;;;;5.83;2.33;;;;;;;;;;4999023;28;20198;-77
2022/06/11 09:12:05;;;;;;;5.07;2.40;;;;;;;;;;5012930;28;20209;-77
2022/06/11 09:14:47;;;;;;;5.53;2.40;;;;;;;;;;4996105;28;20183;-77
2022/06/11 09:17:48;;;;;;;4.93;2.00;;;;;;;;;;4991068;28;20190;-77
2022/06/11 09:20:17;;;;;;;2.70;1.90;;;;;;;;;;4953217;28;20252;-77
2022/06/11 09:22:56;;;;;;;3.40;2.00;;;;;;;;;;4985151;28;20184;-77
2022/06/11 09:25:44;;;;;;;3.77;1.93;;;;;;;;;;4978333;28;20219;-77
2022/06/11 09:28:20;;;;;;;4.50;2.00;;;;;;;;;;4995995;28;20208;-77
2022/06/11 09:30:50;;;;;;;3.10;1.80;;;;;;;;;;5006096;28;20701;-80
2022/06/11 09:33:16;;;;;;;3.50;1.80;;;;;;;;;;4993106;28;20179;-77
2022/06/11 09:35:46;;;;;;;2.60;1.60;;;;;;;;;;4994253;28;20196;-77
2022/06/11 09:38:15;;;;;;;2.20;1.43;;;;;;;;;;5000139;28;20186;-77
2022/06/11 09:40:42;;;;;;;3.07;1.57;;;;;;;;;;5015670;28;20234;-77
2022/06/11 09:43:11;;;;;;;1.77;1.30;;;;;;;;;;4998201;28;20664;-77
2022/06/11 09:45:46;;;;;;;3.97;1.50;;;;;;;;;;5000414;28;20188;-77
2022/06/11 09:48:18;;;;;;;3.13;1.60;;;;;;;;;;4992687;28;20179;-77
2022/06/11 09:50:48;;;;;;;2.70;1.70;;;;;;;;;;5010522;28;20212;-77
2022/06/11 09:53:40;;;;;;;3.83;1.80;;;;;;;;;;4992769;28;20183;-78
2022/06/11 09:56:12;;;;;;;2.83;1.60;;;;;;;;;;4992123;28;20210;-77
2022/06/11 09:58:38;;;;;;;3.43;1.67;;;;;;;;;;4993110;28;20191;-77
2022/06/11 10:01:11;;;;;;;3.70;1.80;;;;;;;;;;4985802;28;20636;-77
2022/06/11 10:03:40;;;;;;;3.03;1.77;;;;;;;;;;4999739;28;20242;-78
2022/06/11 10:06:27;;;;;;;3.90;1.90;;;;;;;;;;4989579;28;20188;-77
2022/06/11 10:08:57;;;;;;;5.23;1.87;;;;;;;;;;4990799;28;20776;-77
2022/06/11 10:11:24;;;;;;;3.90;1.47;;;;;;;;;;4993008;28;20204;-77
2022/06/11 10:13:56;;;;;;;3.77;1.73;;;;;;;;;;4998936;28;20238;-77
2022/06/11 10:16:29;;;;;;;2.67;1.40;;;;;;;;;;4993347;28;20195;-77
2022/06/11 10:18:59;;;;;;;3.57;1.70;;;;;;;;;;4991041;28;20175;-77
2022/06/11 10:21:28;;;;;;;3.70;1.60;;;;;;;;;;5013486;28;20211;-77
2022/06/11 10:23:57;;;;;;;3.50;1.60;;;;;;;;;;4996865;28;20275;-77
2022/06/11 10:26:31;;;;;;;1.93;1.23;;;;;;;;;;4992281;28;20207;-77
2022/06/11 10:28:57;;;;;;;1.60;1.00;;;;;;;;;;4993009;28;20550;-77
2022/06/11 10:31:25;;;;;;;2.57;2.00;;;;;;;;;;4997623;28;20210;-77
2022/06/11 10:34:01;;;;;;;2.47;1.63;;;;;;;;;;5007521;28;20187;-77
2022/06/11 10:36:36;;;;;;;2.67;1.50;;;;;;;;;;4994081;28;20583;-77
2022/06/11 10:39:02;;;;;;;3.73;1.47;;;;;;;;;;4998186;28;20191;-77
2022/06/11 10:41:34;;;;;;;2.27;1.23;;;;;;;;;;4997773;28;20214;-77
2022/06/11 10:44:10;;;;;;;3.30;1.53;;;;;;;;;;4995948;28;20683;-78
2022/06/11 10:46:38;;;;;;;3.50;1.60;;;;;;;;;;4997349;28;20178;-77
2022/06/11 10:49:11;;;;;;;2.40;1.40;;;;;;;;;;5000459;28;20321;-77
2022/06/11 10:51:39;;;;;;;3.67;1.40;;;;;;;;;;4995399;28;20669;-76
2022/06/11 10:54:19;;;;;;;2.97;1.60;;;;;;;;;;4993379;28;20864;-77
2022/06/11 10:56:51;;;;;;;4.13;1.90;;;;;;;;;;4999589;28;20593;-77
2022/06/11 10:59:29;;;;;;;3.53;1.57;;;;;;;;;;4992517;28;20295;-77
2022/06/11 11:02:14;;;;;;;3.00;1.73;;;;;;;;;;4992358;28;21964;-77
2022/06/11 11:04:54;;;;;;;3.53;1.80;;;;;;;;;;4994217;28;20563;-77
2022/06/11 11:07:21;;;;;;;3.93;2.00;;;;;;;;;;4999865;28;20183;-77
2022/06/11 11:09:47;;;;;;;2.63;1.60;;;;;;;;;;4992591;28;20182;-77
2022/06/11 11:12:37;;;;;;;3.40;1.60;;;;;;;;;;4997663;28;20183;-77
2022/06/11 11:15:09;;;;;;;2.30;1.50;;;;;;;;;;4988783;28;20574;-78
2022/06/11 11:17:36;;;;;;;2.70;1.60;;;;;;;;;;4996088;28;20991;-77
2022/06/11 11:20:32;;;;;;;3.00;2.00;;;;;;;;;;4993336;28;20187;-77
2022/06/11 11:23:05;;;;;;;3.57;1.70;;;;;;;;;;4997469;28;20186;-78
2022/06/11 11:25:36;;;;;;;3.00;1.77;;;;;;;;;;4998598;28;20299;-77
2022/06/11 11:28:04;;;;;;;5.43;2.33;;;;;;;;;;4991811;28;20201;-76
2022/06/11 11:30:35;;;;;;;4.37;1.80;;;;;;;;;;4997260;28;20277;-76
2022/06/11 11:33:20;;;;;;;6.17;1.87;;;;;;;;;;4995044;28;20172;-77
2022/06/11 11:35:46;;;;;;;4.00;2.03;;;;;;;;;;5005679;28;20548;-76
2022/06/11 11:38:31;;;;;;;2.53;1.60;;;;;;;;;;4996066;28;20217;-77
2022/06/11 11:41:00;;;;;;;3.03;1.40;;;;;;;;;;4994265;28;20332;-76
2022/06/11 11:43:34;;;;;;;3.60;1.50;;;;;;;;;;4989673;28;20750;-75
2022/06/11 11:46:01;;;;;;;2.27;1.70;;;;;;;;;;4988742;28;20189;-76
2022/06/11 11:48:33;;;;;;;3.53;1.90;;;;;;;;;;4991088;28;20193;-76
2022/06/11 11:51:02;;;;;;;2.63;1.57;;;;;;;;;;4996862;28;20605;-76
2022/06/11 11:53:30;;;;;;;3.07;1.70;;;;;;;;;;4992521;28;20192;-75
2022/06/11 11:55:58;;;;;;;2.67;1.70;;;;;;;;;;4993061;28;20210;-76
2022/06/11 11:58:31;;;;;;;3.80;1.80;;;;;;;;;;4991827;28;20727;-75
2022/06/11 12:01:06;;;;;;;2.60;1.50;;;;;;;;;;4996357;28;20204;-76
2022/06/11 12:03:39;;;;;;;3.80;1.83;;;;;;;;;;4995045;28;20204;-77
2022/06/11 12:06:06;;;;;;;2.20;1.60;;;;;;;;;;4992856;28;20190;-77
2022/06/11 12:08:36;;;;;;;2.37;1.50;;;;;;;;;;4998400;28;20268;-76
2022/06/11 12:11:04;;;;;;;3.93;1.70;;;;;;;;;;4995315;28;20242;-77
2022/06/11 12:13:32;;;;;;;3.00;1.50;;;;;;;;;;4991574;28;20186;-77
2022/06/11 12:16:02;;;;;;;2.67;1.70;;;;;;;;;;4997273;28;20273;-76
2022/06/11 12:18:31;;;;;;;4.87;1.87;;;;;;;;;;4991728;28;20219;-77
2022/06/11 12:21:00;;;;;;;3.10;1.80;;;;;;;;;;4994329;28;20224;-77
2022/06/11 12:23:32;;;;;;;3.17;1.70;;;;;;;;;;4993287;28;20204;-77
2022/06/11 12:26:04;;;;;;;2.83;1.63;;;;;;;;;;4990328;28;20197;-77
2022/06/11 12:28:52;;;;;;;3.40;1.70;;;;;;;;;;4993021;28;20186;-77
2022/06/11 12:31:19;;;;;;;3.77;1.70;;;;;;;;;;4991548;28;20206;-77
2022/06/11 12:33:46;;;;;;;3.17;2.07;;;;;;;;;;4996181;28;20231;-77
2022/06/11 12:36:31;;;;;;;2.40;1.70;;;;;;;;;;4994838;28;20188;-80
2022/06/11 12:39:16;;;;;;;2.07;1.60;;;;;;;;;;4999009;28;20238;-77
2022/06/11 12:41:42;;;;;;;3.97;1.87;;;;;;;;;;5004348;28;20217;-80
2022/06/11 12:44:25;;;;;;;3.40;1.60;;;;;;;;;;5001550;28;20217;-80
2022/06/11 12:46:51;;;;;;;2.47;1.60;;;;;;;;;;4996591;28;20183;-76
2022/06/11 12:49:20;;;;;;;4.03;1.87;;;;;;;;;;5003354;28;20184;-76
2022/06/11 12:52:05;;;;;;;3.23;1.60;;;;;;;;;;4995145;28;20802;-77
2022/06/11 12:54:35;;;;;;;4.07;1.83;;;;;;;;;;4994805;28;20194;-77
2022/06/11 12:57:27;;;;;;;2.90;1.60;;;;;;;;;;5001775;28;20275;-77
2022/06/11 13:00:04;;;;;;;3.73;1.80;;;;;;;;;;4981929;28;20318;-77
2022/06/11 13:02:36;;;;;;;2.60;1.70;;;;;;;;;;4998551;28;20188;-77
2022/06/11 13:05:21;;;;;;;3.47;1.90;;;;;;;;;;4995208;28;20214;-77
2022/06/11 13:07:50;;;;;;;4.93;1.83;;;;;;;;;;4999017;28;20191;-77
2022/06/11 13:10:16;;;;;;;2.60;1.70;;;;;;;;;;4998572;28;20203;-77
2022/06/11 13:12:52;;;;;;;1.93;1.50;;;;;;;;;;4988723;28;20182;-77
2022/06/11 13:15:24;;;;;;;2.17;1.53;;;;;;;;;;4996159;28;20191;-77
2022/06/11 13:18:06;;;;;;;4.33;1.70;;;;;;;;;;5002498;28;20277;-78
2022/06/11 13:20:47;;;;;;;1.57;1.30;;;;;;;;;;4997498;28;20208;-77
2022/06/11 13:23:14;;;;;;;2.90;1.53;;;;;;;;;;4994979;28;20552;-77
2022/06/11 13:25:43;;;;;;;5.53;1.30;;;;;;;;;;5003397;28;20193;-77
2022/06/11 13:28:12;;;;;;;2.05;1.40;;;;;;;;;;5004425;28;20740;-77
2022/06/11 13:30:41;;;;;;;2.40;1.70;;;;;;;;;;4995477;28;20206;-78
2022/06/11 13:33:22;;;;;;;1.42;1.30;;;;;;;;;;4992641;28;20187;-79
2022/06/11 13:35:54;;;;;;;2.50;1.50;;;;;;;;;;4994795;28;20195;-77
2022/06/11 13:38:29;;;;;;;2.88;1.60;;;;;;;;;;4986918;28;20190;-77
2022/06/11 13:41:06;;;;;;;2.53;1.50;;;;;;;;;;4995808;28;20209;-77
2022/06/11 13:43:32;;;;;;;2.97;1.58;;;;;;;;;;4992330;28;20183;-77
2022/06/11 13:45:59;;;;;;;4.35;1.58;;;;;;;;;;5002983;28;20234;-77
2022/06/11 13:48:31;;;;;;;2.80;1.58;;;;;;;;;;4998269;28;20682;-77
2022/06/11 13:51:03;;;;;;;3.03;1.40;;;;;;;;;;5002487;28;20210;-77
2022/06/11 13:56:29;;;;;;;2.35;1.55;;;;;;;;;;4998821;28;20234;-77
2022/06/11 13:58:55;;;;;;;1.65;1.27;;;;;;;;;;4998141;28;20187;-78
2022/06/11 14:01:24;;;;;;;3.55;1.40;;;;;;;;;;4996523;28;20204;-78
2022/06/11 14:04:06;;;;;;;2.20;1.48;;;;;;;;;;4998336;28;20243;-78
2022/06/11 14:06:32;;;;;;;2.30;1.50;;;;;;;;;;4998148;28;20192;-78
2022/06/11 14:12:03;;;;;;;2.33;1.38;;;;;;;;;;5000574;28;20277;-78
2022/06/11 14:14:32;;;;;;;2.08;1.40;;;;;;;;;;4992526;28;20193;-78
2022/06/11 14:16:59;;;;;;;3.10;1.50;;;;;;;;;;5008821;28;20230;-78
2022/06/11 14:19:25;;;;;;;2.50;1.70;;;;;;;;;;4994996;28;20657;-77
2022/06/11 14:21:53;;;;;;;2.30;1.40;;;;;;;;;;4998913;28;20241;-77
2022/06/11 14:24:38;;;;;;;2.57;1.63;;;;;;;;;;5018721;28;20206;-77
2022/06/11 14:27:24;;;;;;;3.33;1.40;;;;;;;;;;5001887;28;20334;-77
2022/06/11 14:30:00;;;;;;;3.00;1.57;;;;;;;;;;4997164;28;20643;-77
2022/06/11 14:32:29;;;;;;;4.67;1.60;;;;;;;;;;5006171;28;20175;-78
2022/06/11 14:35:00;;;;;;;3.57;1.90;;;;;;;;;;5011134;28;20275;-78
2022/06/11 14:37:28;;;;;;;2.97;1.53;;;;;;;;;;5002062;28;20196;-78
2022/06/11 14:40:06;;;;;;;3.90;1.83;;;;;;;;;;5006781;28;20292;-79
2022/06/11 14:42:51;;;;;;;2.55;1.60;;;;;;;;;;5015201;28;20676;-78
2022/06/11 14:45:36;;;;;;;2.65;1.60;;;;;;;;;;4999876;28;20203;-78
2022/06/11 14:48:03;;;;;;;3.70;1.60;;;;;;;;;;5002622;28;20180;-78
2022/06/11 14:50:44;;;;;;;3.05;1.70;;;;;;;;;;5000146;28;20221;-78
2022/06/11 14:53:13;;;;;;;1.60;1.40;;;;;;;;;;4998370;28;20176;-77
2022/06/11 14:55:42;;;;;;;1.70;1.40;;;;;;;;;;5011505;28;20248;-77
2022/06/11 14:58:28;;;;;;;3.05;1.38;;;;;;;;;;4999416;28;20198;-78
2022/06/11 15:00:57;;;;;;;1.95;1.33;;;;;;;;;;4997414;28;20213;-77
2022/06/11 15:03:41;;;;;;;2.92;1.90;;;;;;;;;;5008632;28;20177;-78
2022/06/11 15:06:25;;;;;;;1.73;1.33;;;;;;;;;;4996461;28;20209;-78
2022/06/11 15:08:54;;;;;;;2.10;1.52;;;;;;;;;;4996010;28;20203;-78
2022/06/11 15:11:23;;;;;;;1.55;1.40;;;;;;;;;;4992850;28;20293;-78